Time;durP1;ratioP1;P1;durP2;ratioP2;P2;SDS_P1;SDS_P2;PMS_P1;PMS_P2;Temp;Humidity;BMP_temperature;BMP_pressure;BME280_temperature;BME280_humidity;BME280_pressure;Samples;Min_cycle;Max_cycle;Signal;HPM_P1;HPM_P2
2022/07/12 00:00:00;;;;;;;7.43;4.35;;;13.50;97.70;;;;;;5115401;27;20024;-64
2022/07/12 00:02:25;;;;;;;6.13;4.78;;;13.50;97.50;;;;;;5116341;27;20077;-64
2022/07/12 00:04:51;;;;;;;6.50;4.88;;;13.50;97.60;;;;;;5116890;27;20023;-64
2022/07/12 00:07:18;;;;;;;6.40;4.65;;;13.60;97.90;;;;;;5119414;27;20034;-65
2022/07/12 00:09:43;;;;;;;7.30;4.72;;;13.50;97.80;;;;;;5117414;27;20120;-64
2022/07/12 00:12:10;;;;;;;7.60;4.65;;;13.50;97.70;;;;;;5126227;27;20046;-64
2022/07/12 00:14:36;;;;;;;8.20;4.97;;;13.40;97.50;;;;;;5108720;27;20055;-64
2022/07/12 00:17:04;;;;;;;8.77;4.80;;;13.40;97.40;;;;;;5117461;28;20131;-64
2022/07/12 00:19:29;;;;;;;7.72;5.07;;;13.40;97.20;;;;;;5117513;27;20324;-64
2022/07/12 00:21:55;;;;;;;7.40;4.80;;;13.40;97.20;;;;;;5116373;27;20031;-64
2022/07/12 00:24:21;;;;;;;7.97;4.82;;;13.60;97.50;;;;;;5113705;27;20085;-64
2022/07/12 00:26:46;;;;;;;6.85;4.80;;;13.60;97.70;;;;;;5115834;27;20031;-64
2022/07/12 00:29:13;;;;;;;6.25;4.68;;;13.60;97.80;;;;;;5120906;27;20055;-64
2022/07/12 00:31:39;;;;;;;9.25;5.07;;;13.50;97.50;;;;;;5112705;27;20035;-64
2022/07/12 00:34:04;;;;;;;7.07;4.45;;;13.50;97.50;;;;;;5123271;27;20023;-63
2022/07/12 00:36:30;;;;;;;6.80;4.90;;;13.50;97.60;;;;;;5119186;27;20030;-64
2022/07/12 00:38:56;;;;;;;6.88;4.88;;;13.30;97.60;;;;;;5113217;27;20461;-64
2022/07/12 00:41:22;;;;;;;6.40;4.72;;;13.20;97.60;;;;;;5115827;27;20089;-64
2022/07/12 00:43:48;;;;;;;7.25;5.38;;;13.10;97.40;;;;;;5111543;27;20023;-64
2022/07/12 00:46:22;;;;;;;8.77;5.30;;;12.80;96.90;;;;;;5104470;27;20039;-64
2022/07/12 00:48:48;;;;;;;7.63;5.10;;;12.70;96.30;;;;;;5113083;27;20034;-64
2022/07/12 00:51:14;;;;;;;7.95;5.80;;;12.60;95.80;;;;;;5112320;27;20027;-64
2022/07/12 00:53:40;;;;;;;6.95;5.20;;;12.40;95.50;;;;;;5116122;27;20027;-64
2022/07/12 00:56:06;;;;;;;10.20;5.90;;;12.30;95.40;;;;;;5116335;27;20024;-64
2022/07/12 00:58:32;;;;;;;8.75;5.95;;;12.20;94.70;;;;;;5115771;27;20088;-64
2022/07/12 01:01:01;;;;;;;8.25;5.47;;;12.10;94.70;;;;;;5114797;27;20035;-64
2022/07/12 01:03:29;;;;;;;7.18;5.18;;;12.00;94.50;;;;;;5112810;27;20260;-64
2022/07/12 01:05:56;;;;;;;9.02;6.18;;;11.90;94.30;;;;;;5116147;27;20379;-63
2022/07/12 01:08:22;;;;;;;8.63;6.30;;;11.80;93.90;;;;;;5113470;27;20020;-64
2022/07/12 01:10:51;;;;;;;9.82;6.43;;;11.80;93.20;;;;;;5108917;27;20301;-64
2022/07/12 01:13:17;;;;;;;8.73;5.90;;;11.80;93.20;;;;;;5120143;27;20424;-64
2022/07/12 01:15:47;;;;;;;10.27;6.40;;;11.70;92.70;;;;;;5114622;27;20116;-63
2022/07/12 01:18:13;;;;;;;7.93;5.78;;;11.80;92.80;;;;;;5111536;27;20321;-64
2022/07/12 01:20:39;;;;;;;10.13;6.72;;;11.80;92.90;;;;;;5108726;27;20037;-64
2022/07/12 01:23:12;;;;;;;9.80;5.70;;;11.70;93.10;;;;;;5110212;27;20055;-64
2022/07/12 01:25:38;;;;;;;9.00;6.35;;;11.50;93.10;;;;;;5110532;27;20388;-64
2022/07/12 01:28:04;;;;;;;8.98;6.35;;;11.40;92.40;;;;;;5112991;28;20077;-64
2022/07/12 01:30:30;;;;;;;9.10;6.70;;;11.30;92.30;;;;;;5112004;27;20074;-63
2022/07/12 01:32:55;;;;;;;8.35;6.45;;;11.20;91.70;;;;;;5111239;27;20055;-64
2022/07/12 01:35:22;;;;;;;8.20;6.13;;;11.20;91.20;;;;;;5115276;27;20019;-64
2022/07/12 01:37:51;;;;;;;9.20;7.03;;;11.20;91.00;;;;;;5111331;27;20069;-63
2022/07/12 01:40:20;;;;;;;8.80;6.65;;;11.20;90.80;;;;;;5110167;27;20039;-63
2022/07/12 01:42:47;;;;;;;9.43;6.35;;;11.10;91.20;;;;;;5115504;27;20027;-62
2022/07/12 01:45:16;;;;;;;8.13;5.72;;;11.10;91.10;;;;;;5110291;28;20318;-63
2022/07/12 01:47:42;;;;;;;12.07;7.10;;;11.00;91.00;;;;;;5108466;27;20093;-63
2022/07/12 01:50:10;;;;;;;9.95;7.38;;;11.00;90.50;;;;;;5114962;27;20020;-63
2022/07/12 01:52:38;;;;;;;10.98;7.22;;;11.00;89.90;;;;;;5113932;27;20106;-66
2022/07/12 01:55:04;;;;;;;11.35;7.80;;;11.10;89.10;;;;;;5103669;27;20020;-65
2022/07/12 01:57:32;;;;;;;11.43;7.50;;;11.20;89.30;;;;;;5110271;27;20031;-63
2022/07/12 01:59:59;;;;;;;11.90;7.68;;;11.20;88.80;;;;;;5115936;27;20028;-64
2022/07/12 02:02:28;;;;;;;10.75;7.82;;;11.30;89.00;;;;;;5109832;27;20036;-64
2022/07/12 02:04:54;;;;;;;10.45;7.32;;;11.30;89.20;;;;;;5113584;27;20028;-65
2022/07/12 02:07:21;;;;;;;9.52;7.30;;;11.40;88.20;;;;;;5113880;27;20397;-64
2022/07/12 02:09:46;;;;;;;11.02;7.38;;;11.40;88.20;;;;;;5112335;27;20421;-64
2022/07/12 02:12:12;;;;;;;9.35;7.57;;;11.50;88.50;;;;;;5111666;28;20031;-64
2022/07/12 02:14:38;;;;;;;9.40;7.50;;;11.60;88.00;;;;;;5116363;27;20015;-65
2022/07/12 02:17:04;;;;;;;10.52;6.88;;;11.60;89.40;;;;;;5115214;28;20155;-63
2022/07/12 02:19:30;;;;;;;11.02;6.95;;;11.50;89.80;;;;;;5112072;27;20439;-64
2022/07/12 02:21:55;;;;;;;9.30;7.30;;;11.40;90.30;;;;;;5117509;27;20027;-64
2022/07/12 02:24:21;;;;;;;9.38;6.55;;;11.30;90.60;;;;;;5110395;27;20035;-64
2022/07/12 02:26:47;;;;;;;9.35;7.30;;;11.20;90.00;;;;;;5112677;27;20032;-64
2022/07/12 02:29:13;;;;;;;10.43;7.38;;;11.20;89.80;;;;;;5113607;27;20026;-64
2022/07/12 02:31:38;;;;;;;9.82;7.07;;;11.20;89.20;;;;;;5113203;28;20320;-64
2022/07/12 02:34:05;;;;;;;8.30;6.93;;;11.20;89.30;;;;;;5113978;27;20026;-64
2022/07/12 02:36:30;;;;;;;9.95;7.47;;;11.10;89.20;;;;;;5111823;27;20038;-64
2022/07/12 02:39:03;;;;;;;10.32;7.30;;;11.20;88.50;;;;;;5110098;28;20023;-63
2022/07/12 02:41:33;;;;;;;10.15;7.93;;;11.20;88.20;;;;;;5104570;27;20054;-64
2022/07/12 02:43:59;;;;;;;11.10;7.72;;;11.30;88.10;;;;;;5112271;27;20040;-64
2022/07/12 02:46:25;;;;;;;10.50;7.50;;;11.30;88.20;;;;;;5112595;27;20046;-64
2022/07/12 02:48:52;;;;;;;11.63;8.02;;;11.30;88.10;;;;;;5112539;28;20348;-64
2022/07/12 02:51:18;;;;;;;10.43;7.55;;;11.30;88.20;;;;;;5113251;28;20027;-64
2022/07/12 02:53:44;;;;;;;9.35;6.90;;;11.30;88.20;;;;;;5111458;27;20032;-65
2022/07/12 02:56:10;;;;;;;11.25;6.63;;;11.30;88.80;;;;;;5112317;28;20031;-64
2022/07/12 02:58:36;;;;;;;11.68;7.50;;;11.20;88.50;;;;;;5112614;28;20027;-64
2022/07/12 03:01:02;;;;;;;12.10;8.25;;;11.20;88.40;;;;;;5108001;27;20020;-64
2022/07/12 03:03:27;;;;;;;11.52;8.18;;;11.10;88.10;;;;;;5107821;28;20108;-64
2022/07/12 03:05:53;;;;;;;9.77;6.95;;;11.10;87.90;;;;;;5108418;28;20036;-64
2022/07/12 03:08:19;;;;;;;9.25;6.78;;;11.10;87.40;;;;;;5109317;28;20051;-64
2022/07/12 03:10:45;;;;;;;10.80;8.35;;;11.20;87.30;;;;;;5109875;28;20027;-63
2022/07/12 03:13:12;;;;;;;11.57;8.68;;;11.20;87.00;;;;;;5102139;28;20140;-63
2022/07/12 03:15:37;;;;;;;10.70;7.55;;;11.20;87.00;;;;;;5114437;28;20103;-64
2022/07/12 03:18:03;;;;;;;9.65;7.75;;;11.30;86.80;;;;;;5113661;28;20104;-64
2022/07/12 03:20:30;;;;;;;10.55;7.93;;;11.30;86.50;;;;;;5116130;28;20077;-64
2022/07/12 03:23:00;;;;;;;10.32;8.27;;;11.40;86.90;;;;;;5112541;28;20373;-64
2022/07/12 03:25:25;;;;;;;13.00;8.32;;;11.50;87.00;;;;;;5112577;28;20310;-64
2022/07/12 03:27:51;;;;;;;11.15;7.75;;;11.40;87.90;;;;;;5113159;28;20051;-64
2022/07/12 03:30:17;;;;;;;12.82;9.50;;;11.40;87.60;;;;;;5111967;28;20102;-64
2022/07/12 03:32:43;;;;;;;9.65;7.85;;;11.30;87.80;;;;;;5110017;27;20038;-64
2022/07/12 03:35:09;;;;;;;11.93;8.07;;;11.30;87.60;;;;;;5113814;28;20122;-64
2022/07/12 03:37:49;;;;;;;10.00;7.90;;;11.30;87.80;;;;;;5113015;28;20479;-64
2022/07/12 03:40:17;;;;;;;10.50;8.23;;;11.30;87.70;;;;;;5111113;28;20115;-64
2022/07/12 03:42:44;;;;;;;10.07;7.57;;;11.30;87.50;;;;;;5112268;28;20140;-64
2022/07/12 03:45:11;;;;;;;10.65;8.43;;;11.30;87.20;;;;;;5109911;28;20055;-64
2022/07/12 03:47:39;;;;;;;9.05;6.88;;;11.40;87.10;;;;;;5107128;28;20443;-63
2022/07/12 03:50:07;;;;;;;12.50;8.13;;;11.40;87.30;;;;;;5108898;28;20038;-64
2022/07/12 03:52:33;;;;;;;9.88;7.65;;;11.50;87.60;;;;;;5110145;28;20056;-64
2022/07/12 03:55:01;;;;;;;9.52;7.53;;;11.50;87.50;;;;;;5107365;28;20064;-64
2022/07/12 03:57:27;;;;;;;10.00;7.90;;;11.60;87.80;;;;;;5111922;28;20039;-64
2022/07/12 03:59:53;;;;;;;9.10;6.93;;;11.60;88.30;;;;;;5115738;28;20036;-65
2022/07/12 04:02:19;;;;;;;11.10;8.20;;;11.60;88.30;;;;;;5098320;28;20059;-64
2022/07/12 04:04:44;;;;;;;10.10;7.43;;;11.60;88.60;;;;;;5111463;28;20023;-64
2022/07/12 04:07:10;;;;;;;10.32;7.07;;;11.50;88.30;;;;;;5110300;28;20032;-63
2022/07/12 04:09:39;;;;;;;9.85;7.63;;;11.60;88.60;;;;;;5105332;28;20046;-64
2022/07/12 04:12:05;;;;;;;11.35;7.72;;;11.60;88.80;;;;;;5112904;28;20729;-64
2022/07/12 04:14:31;;;;;;;9.60;7.45;;;11.60;88.60;;;;;;5110936;28;20425;-62
2022/07/12 04:16:56;;;;;;;9.05;7.05;;;11.70;88.70;;;;;;5111958;28;20042;-64
2022/07/12 04:19:27;;;;;;;11.00;7.90;;;11.70;89.00;;;;;;5106014;28;20028;-64
2022/07/12 04:21:57;;;;;;;12.10;8.23;;;11.70;89.50;;;;;;5129223;28;20043;-64
2022/07/12 04:24:23;;;;;;;11.43;8.15;;;11.70;89.20;;;;;;5110592;28;20352;-64
2022/07/12 04:26:49;;;;;;;10.52;7.70;;;11.80;89.50;;;;;;5122489;27;20401;-64
2022/07/12 04:29:16;;;;;;;9.43;7.13;;;11.80;90.00;;;;;;5116668;27;20023;-64
2022/07/12 04:31:42;;;;;;;11.27;7.82;;;11.70;90.20;;;;;;5112877;27;20047;-64
2022/07/12 04:34:07;;;;;;;13.35;7.70;;;11.70;90.20;;;;;;5116394;28;20055;-64
2022/07/12 04:36:34;;;;;;;10.98;8.13;;;11.70;89.60;;;;;;5115708;27;20024;-64
2022/07/12 04:38:59;;;;;;;10.10;8.13;;;11.70;89.70;;;;;;5114097;27;20158;-64
2022/07/12 04:41:25;;;;;;;8.88;6.88;;;11.80;89.80;;;;;;5115972;27;20106;-62
2022/07/12 04:43:50;;;;;;;8.73;7.22;;;11.80;90.00;;;;;;5115450;27;20127;-64
2022/07/12 04:46:16;;;;;;;10.63;7.43;;;11.80;90.50;;;;;;5110650;27;20143;-66
2022/07/12 04:48:42;;;;;;;10.15;7.57;;;11.70;90.50;;;;;;5113833;28;20024;-64
2022/07/12 04:51:07;;;;;;;10.32;7.45;;;11.60;90.70;;;;;;5115441;28;20102;-65
2022/07/12 04:53:33;;;;;;;11.60;9.05;;;11.60;90.40;;;;;;5114884;28;20107;-65
2022/07/12 04:55:59;;;;;;;9.95;7.32;;;11.70;89.80;;;;;;5116572;27;20051;-64
2022/07/12 04:58:24;;;;;;;12.00;8.77;;;11.70;89.20;;;;;;5116632;27;20024;-65
2022/07/12 05:00:50;;;;;;;12.15;7.95;;;11.80;88.90;;;;;;5103518;27;20370;-63
2022/07/12 05:03:16;;;;;;;10.90;7.88;;;11.90;88.90;;;;;;5111048;27;20016;-64
2022/07/12 05:05:43;;;;;;;9.30;7.25;;;12.00;89.40;;;;;;5119150;27;20058;-64
2022/07/12 05:08:08;;;;;;;8.98;7.38;;;12.00;89.40;;;;;;5111675;27;20420;-64
2022/07/12 05:10:34;;;;;;;12.80;8.55;;;12.00;89.40;;;;;;5118027;27;20020;-64
2022/07/12 05:13:00;;;;;;;11.15;7.70;;;12.10;89.10;;;;;;5113196;27;20080;-64
2022/07/12 05:15:26;;;;;;;9.32;7.28;;;12.20;89.20;;;;;;5117713;27;20326;-64
2022/07/12 05:17:54;;;;;;;11.60;7.35;;;12.30;88.70;;;;;;5113435;28;20035;-64
2022/07/12 05:20:20;;;;;;;10.45;7.72;;;12.50;88.80;;;;;;5105750;27;20019;-64
2022/07/12 05:22:45;;;;;;;9.27;7.30;;;12.60;88.90;;;;;;5109485;27;20026;-64
2022/07/12 05:25:11;;;;;;;11.23;7.85;;;12.70;89.00;;;;;;5121315;27;20027;-64
2022/07/12 05:27:37;;;;;;;10.00;7.57;;;12.90;89.10;;;;;;5115615;28;20026;-64
2022/07/12 05:30:04;;;;;;;11.63;7.93;;;13.00;89.30;;;;;;5113380;27;20100;-64
2022/07/12 05:32:30;;;;;;;10.60;7.00;;;13.20;89.70;;;;;;5119712;27;20020;-63
2022/07/12 05:34:56;;;;;;;9.40;7.07;;;13.30;90.20;;;;;;5110123;27;20033;-64
2022/07/12 05:37:24;;;;;;;8.15;6.63;;;13.50;90.90;;;;;;5113006;27;20040;-64
2022/07/12 05:39:50;;;;;;;9.18;7.03;;;13.60;91.60;;;;;;5108957;27;20020;-64
2022/07/12 05:42:16;;;;;;;7.95;6.47;;;13.80;92.80;;;;;;5098639;28;20035;-64
2022/07/12 05:44:42;;;;;;;8.95;6.53;;;14.00;93.60;;;;;;5117512;27;20359;-64
2022/07/12 05:47:07;;;;;;;9.25;6.30;;;14.20;94.60;;;;;;5104247;27;20024;-63
2022/07/12 05:49:33;;;;;;;9.70;6.45;;;14.30;95.20;;;;;;5111868;28;20137;-64
2022/07/12 05:54:43;;;;;;;7.75;6.40;;;14.70;97.60;;;;;;5122570;27;20336;-64
2022/07/12 05:57:08;;;;;;;8.57;6.22;;;14.80;98.00;;;;;;5117638;27;20035;-63
2022/07/12 05:59:37;;;;;;;10.65;6.00;;;15.00;98.00;;;;;;5116105;28;20031;-62
2022/07/12 06:02:04;;;;;;;8.48;5.75;;;15.10;98.00;;;;;;5113111;28;20324;-64
2022/07/12 06:04:30;;;;;;;7.82;5.80;;;15.20;98.00;;;;;;5113832;27;20447;-63
2022/07/12 06:06:56;;;;;;;7.20;5.35;;;15.30;98.00;;;;;;5115282;28;20019;-64
2022/07/12 06:09:21;;;;;;;8.05;6.30;;;15.50;98.00;;;;;;5112858;28;20019;-64
2022/07/12 06:11:47;;;;;;;9.00;5.88;;;15.60;98.00;;;;;;5116343;28;20597;-64
2022/07/12 06:14:13;;;;;;;8.80;5.60;;;15.70;98.00;;;;;;5118842;27;20416;-64
2022/07/12 06:16:38;;;;;;;8.98;6.03;;;15.70;98.00;;;;;;5115235;27;20024;-63
2022/07/12 06:19:04;;;;;;;7.00;5.00;;;15.80;98.00;;;;;;5113972;28;20028;-64
2022/07/12 06:21:29;;;;;;;7.55;5.55;;;16.00;98.00;;;;;;5113101;28;20031;-64
2022/07/12 06:23:57;;;;;;;8.45;5.43;;;16.10;98.00;;;;;;5111916;27;20409;-64
2022/07/12 06:26:23;;;;;;;9.52;6.10;;;16.20;98.00;;;;;;5131230;27;20504;-64
2022/07/12 06:28:49;;;;;;;9.43;5.35;;;16.30;98.00;;;;;;5113933;28;20102;-69
2022/07/12 06:31:14;;;;;;;9.77;6.05;;;16.40;97.90;;;;;;5114696;28;20073;-64
2022/07/12 06:33:40;;;;;;;8.90;6.07;;;16.60;98.00;;;;;;5120501;27;20027;-64
2022/07/12 06:36:06;;;;;;;11.50;6.68;;;16.70;97.90;;;;;;5115994;27;20042;-64
2022/07/12 06:38:31;;;;;;;7.97;6.00;;;16.70;97.90;;;;;;5111423;28;20092;-64
2022/07/12 06:40:57;;;;;;;8.93;5.75;;;16.60;97.80;;;;;;5116404;28;20028;-64
2022/07/12 06:43:22;;;;;;;7.95;5.72;;;16.70;97.90;;;;;;5113545;28;20324;-64
2022/07/12 06:45:51;;;;;;;8.73;5.68;;;16.70;97.50;;;;;;5115071;28;20059;-64
2022/07/12 06:48:16;;;;;;;7.13;5.47;;;16.70;97.70;;;;;;5120273;27;20050;-64
2022/07/12 06:50:42;;;;;;;6.70;5.40;;;16.70;97.30;;;;;;5116296;28;20023;-64
2022/07/12 06:53:11;;;;;;;7.60;5.30;;;16.80;97.50;;;;;;5112797;27;20019;-64
2022/07/12 06:55:37;;;;;;;6.60;4.90;;;16.90;97.20;;;;;;5115509;28;20022;-64
2022/07/12 06:58:02;;;;;;;9.63;6.20;;;17.10;97.10;;;;;;5114410;28;20027;-64
2022/07/12 07:00:28;;;;;;;6.95;4.88;;;17.20;96.70;;;;;;5113980;28;20459;-64
2022/07/12 07:02:54;;;;;;;9.32;5.32;;;17.40;96.60;;;;;;5113682;27;20031;-64
2022/07/12 07:05:22;;;;;;;8.68;5.53;;;17.60;96.10;;;;;;5114237;28;20030;-64
2022/07/12 07:07:48;;;;;;;7.80;5.00;;;17.70;95.60;;;;;;5114607;28;20085;-64
2022/07/12 07:10:14;;;;;;;6.90;5.30;;;17.80;95.50;;;;;;5115296;28;20024;-64
2022/07/12 07:12:39;;;;;;;7.90;5.55;;;17.70;95.50;;;;;;5115117;28;20029;-64
2022/07/12 07:15:06;;;;;;;8.15;5.10;;;17.80;95.60;;;;;;5116203;28;20034;-64
2022/07/12 07:17:31;;;;;;;7.47;5.00;;;18.00;95.50;;;;;;5114595;28;20023;-64
2022/07/12 07:19:57;;;;;;;8.93;5.25;;;18.10;94.60;;;;;;5115303;28;20036;-64
2022/07/12 07:22:22;;;;;;;6.72;4.95;;;18.30;94.50;;;;;;5113298;28;20024;-65
2022/07/12 07:24:48;;;;;;;9.02;4.88;;;18.50;94.30;;;;;;5112620;28;20338;-63
2022/07/12 07:27:14;;;;;;;10.93;5.00;;;18.80;93.80;;;;;;5114511;28;20605;-64
2022/07/12 07:32:24;;;;;;;6.63;3.80;;;19.20;93.20;;;;;;5112597;28;20023;-65
2022/07/12 07:34:49;;;;;;;7.50;3.88;;;20.10;91.50;;;;;;5117305;28;20024;-63
2022/07/12 07:37:15;;;;;;;6.00;3.90;;;21.20;88.50;;;;;;5115051;28;20035;-63
2022/07/12 07:39:41;;;;;;;7.72;3.95;;;22.30;85.50;;;;;;5114754;28;20071;-63
2022/07/12 07:42:07;;;;;;;7.35;3.70;;;22.90;82.20;;;;;;5115895;28;20161;-65
2022/07/12 07:44:32;;;;;;;5.32;3.22;;;23.20;80.80;;;;;;5114935;28;20024;-66
2022/07/12 07:46:58;;;;;;;5.85;3.50;;;23.60;80.30;;;;;;5114183;28;20084;-64
2022/07/12 07:49:26;;;;;;;6.57;3.83;;;23.70;80.00;;;;;;5114476;28;20409;-65
2022/07/12 07:51:52;;;;;;;6.47;3.47;;;23.70;79.10;;;;;;5115568;28;20015;-64
2022/07/12 07:54:18;;;;;;;6.22;3.33;;;24.30;78.60;;;;;;5110813;28;20024;-65
2022/07/12 07:56:44;;;;;;;5.70;3.55;;;24.60;77.60;;;;;;5114986;28;20419;-65
2022/07/12 07:59:09;;;;;;;7.07;3.63;;;25.10;75.90;;;;;;5114977;28;20103;-64
2022/07/12 08:01:52;;;;;;;6.53;3.17;;;24.90;75.50;;;;;;5116777;28;20031;-65
2022/07/12 08:04:18;;;;;;;4.72;2.78;;;25.00;74.50;;;;;;5114027;28;20131;-64
2022/07/12 08:06:45;;;;;;;5.40;3.75;;;25.60;74.40;;;;;;5117086;27;20140;-64
2022/07/12 08:09:11;;;;;;;6.85;3.38;;;26.00;71.60;;;;;;5117507;28;20030;-65
2022/07/12 08:11:37;;;;;;;7.10;3.10;;;26.10;72.90;;;;;;5119663;27;20094;-64
2022/07/12 08:14:04;;;;;;;7.68;3.38;;;26.30;70.40;;;;;;5118770;28;20044;-64
2022/07/12 08:16:30;;;;;;;8.88;3.50;;;26.10;70.90;;;;;;5118789;27;20032;-64
2022/07/12 08:18:57;;;;;;;5.32;3.28;;;26.00;71.60;;;;;;5119682;27;20420;-64
2022/07/12 08:21:23;;;;;;;425.80;22.33;;;26.20;70.40;;;;;;5118137;28;20058;-64
2022/07/12 08:23:49;;;;;;;6.93;3.17;;;26.40;69.80;;;;;;5117298;28;20035;-64
2022/07/12 08:26:15;;;;;;;313.38;27.27;;;26.60;69.20;;;;;;5117296;27;20496;-64
2022/07/12 08:28:41;;;;;;;6.53;3.10;;;27.30;67.90;;;;;;5130143;27;20098;-64
2022/07/12 08:31:07;;;;;;;5.22;3.05;;;27.20;68.50;;;;;;5139831;27;20027;-64
2022/07/12 08:33:32;;;;;;;5.65;3.25;;;26.90;67.80;;;;;;5130223;27;20036;-64
2022/07/12 08:35:58;;;;;;;6.15;3.75;;;26.60;67.50;;;;;;5118038;28;20020;-64
2022/07/12 08:38:24;;;;;;;5.40;3.10;;;25.60;68.90;;;;;;5111545;28;20024;-64
2022/07/12 08:40:50;;;;;;;4.75;3.05;;;24.40;72.50;;;;;;5116232;28;20104;-64
2022/07/12 08:43:15;;;;;;;6.50;3.67;;;24.60;72.50;;;;;;5122200;27;20019;-64
2022/07/12 08:45:41;;;;;;;4.57;2.80;;;25.50;70.40;;;;;;5117363;28;20064;-64
2022/07/12 08:48:08;;;;;;;6.28;3.17;;;26.60;67.60;;;;;;5118302;27;20028;-64
2022/07/12 08:50:34;;;;;;;5.20;3.20;;;27.30;67.30;;;;;;5116623;28;20114;-64
2022/07/12 08:53:00;;;;;;;4.57;3.10;;;27.90;65.40;;;;;;5120915;27;20403;-63
2022/07/12 08:55:34;;;;;;;6.55;2.65;;;27.30;64.80;;;;;;5119722;27;20072;-63
2022/07/12 08:58:02;;;;;;;6.10;3.10;;;27.00;65.90;;;;;;5117478;28;20024;-62
2022/07/12 09:00:28;;;;;;;5.00;3.40;;;26.70;66.10;;;;;;5113679;28;20037;-62
2022/07/12 09:02:59;;;;;;;4.75;2.80;;;26.10;67.30;;;;;;5120241;27;20109;-64
2022/07/12 09:05:30;;;;;;;4.43;2.42;;;26.50;66.50;;;;;;5119456;27;20452;-64
2022/07/12 09:08:07;;;;;;;5.05;2.70;;;26.00;66.40;;;;;;5119184;27;20031;-64
2022/07/12 09:10:34;;;;;;;5.65;2.60;;;25.50;69.50;;;;;;5118262;28;20020;-64
2022/07/12 09:13:00;;;;;;;4.43;2.80;;;25.50;68.90;;;;;;5135490;27;20416;-64
2022/07/12 09:15:27;;;;;;;4.30;2.60;;;25.10;69.80;;;;;;5130399;27;20039;-64
2022/07/12 09:17:59;;;;;;;6.15;2.58;;;26.00;67.60;;;;;;5118507;27;20038;-64
2022/07/12 09:20:32;;;;;;;5.85;2.60;;;25.90;65.10;;;;;;5117309;28;20028;-64
2022/07/12 09:23:00;;;;;;;5.93;2.35;;;25.30;67.90;;;;;;5122016;27;20098;-64
2022/07/12 09:25:26;;;;;;;5.72;2.50;;;26.80;66.60;;;;;;5131514;27;20035;-64
2022/07/12 09:27:57;;;;;;;4.32;2.10;;;27.30;62.10;;;;;;5115804;28;20297;-64
2022/07/12 09:30:24;;;;;;;5.03;2.38;;;27.10;64.60;;;;;;5117040;28;20024;-64
2022/07/12 09:36:06;;;;;;;;;;;26.70;64.30;;;;;;5098025;28;20069;-64
2022/07/12 09:38:37;;;;;;;6.00;2.60;;;25.70;67.10;;;;;;5109338;28;20003;-65
2022/07/12 09:41:07;;;;;;;6.60;2.20;;;25.70;68.30;;;;;;5115864;28;20118;-64
2022/07/12 09:43:36;;;;;;;4.78;2.30;;;26.80;62.60;;;;;;5114677;27;20032;-64
2022/07/12 09:46:01;;;;;;;4.00;2.20;;;28.00;61.20;;;;;;5113092;28;20050;-64
2022/07/12 09:48:28;;;;;;;4.45;2.20;;;28.40;59.20;;;;;;5114118;28;20023;-65
2022/07/12 09:51:00;;;;;;;4.22;2.30;;;28.50;59.90;;;;;;5113779;28;20024;-64
2022/07/12 09:53:45;;;;;;;4.97;2.05;;;28.50;58.90;;;;;;5115187;27;20051;-64
2022/07/12 09:56:13;;;;;;;4.03;1.85;;;28.40;59.60;;;;;;5116269;28;20027;-64
2022/07/12 09:58:53;;;;;;;4.45;2.15;;;29.00;58.20;;;;;;5117553;28;20304;-64
2022/07/12 10:01:19;;;;;;;4.75;2.03;;;28.40;58.70;;;;;;5117677;28;20020;-65
2022/07/12 10:03:46;;;;;;;5.55;2.20;;;28.70;59.80;;;;;;5117939;27;20026;-65
2022/07/12 10:06:15;;;;;;;4.70;2.40;;;28.80;60.20;;;;;;5117235;28;20432;-64
2022/07/12 10:08:40;;;;;;;4.30;2.17;;;28.20;59.60;;;;;;5115035;28;20122;-64
2022/07/12 10:11:06;;;;;;;5.47;1.90;;;27.50;62.60;;;;;;5113591;28;20421;-64
2022/07/12 10:13:33;;;;;;;3.63;1.70;;;27.60;63.40;;;;;;5115665;27;20111;-64
2022/07/12 10:16:03;;;;;;;3.83;1.88;;;28.10;61.70;;;;;;5117079;28;20028;-64
2022/07/12 10:18:29;;;;;;;4.90;1.50;;;28.70;61.00;;;;;;5115445;28;20024;-64
2022/07/12 10:20:56;;;;;;;2.85;1.60;;;29.30;59.30;;;;;;5117078;28;20034;-65
2022/07/12 10:23:36;;;;;;;3.58;1.73;;;29.60;57.20;;;;;;5116238;27;20120;-64
2022/07/12 10:26:26;;;;;;;3.65;2.00;;;29.10;58.30;;;;;;5115027;28;20027;-64
2022/07/12 10:29:07;;;;;;;3.22;1.50;;;28.30;59.80;;;;;;5096721;28;20035;-64
2022/07/12 10:31:37;;;;;;;3.25;1.70;;;27.90;60.60;;;;;;5110179;27;20036;-63
2022/07/12 10:34:21;;;;;;;3.17;1.60;;;28.40;60.30;;;;;;5114294;28;20031;-64
2022/07/12 10:36:56;;;;;;;3.60;1.70;;;28.00;59.00;;;;;;5114668;28;20028;-66
2022/07/12 10:39:27;;;;;;;3.60;1.60;;;27.10;62.00;;;;;;5114534;28;20055;-66
2022/07/12 10:42:07;;;;;;;3.72;1.40;;;27.10;62.70;;;;;;5104974;27;20047;-65
2022/07/12 10:44:42;;;;;;;3.22;1.50;;;27.40;62.00;;;;;;5114611;28;20032;-65
2022/07/12 10:47:08;;;;;;;2.88;1.30;;;28.00;60.10;;;;;;5112778;28;20027;-65
2022/07/12 10:49:36;;;;;;;5.00;1.58;;;28.50;60.70;;;;;;5113357;28;20058;-63
2022/07/12 10:52:11;;;;;;;2.53;1.50;;;28.40;61.40;;;;;;5113907;28;20035;-64
2022/07/12 10:54:50;;;;;;;3.15;1.60;;;28.60;60.10;;;;;;5111593;27;20457;-64
2022/07/12 10:57:37;;;;;;;3.83;1.65;;;28.70;59.50;;;;;;5112822;27;20038;-64
2022/07/12 11:00:04;;;;;;;2.67;1.40;;;28.70;59.60;;;;;;5112085;28;20039;-64
2022/07/12 11:02:31;;;;;;;3.35;1.35;;;28.20;59.80;;;;;;5109989;28;20374;-64
2022/07/12 11:04:57;;;;;;;2.85;1.40;;;27.60;60.60;;;;;;5112505;28;20031;-63
2022/07/12 11:07:24;;;;;;;2.13;1.23;;;27.50;61.00;;;;;;5113948;28;20031;-65
2022/07/12 11:09:53;;;;;;;2.70;1.40;;;27.40;60.80;;;;;;5113989;28;20022;-65
2022/07/12 11:12:18;;;;;;;2.28;1.20;;;27.30;61.70;;;;;;5116614;28;20027;-64
2022/07/12 11:14:45;;;;;;;2.50;1.23;;;27.00;61.70;;;;;;5117520;28;20028;-64
2022/07/12 11:17:11;;;;;;;2.55;1.30;;;26.90;60.70;;;;;;5112273;28;20421;-64
2022/07/12 11:19:37;;;;;;;3.63;1.67;;;26.80;62.80;;;;;;5111627;28;20023;-64
2022/07/12 11:22:03;;;;;;;4.35;1.70;;;27.20;61.00;;;;;;5125909;28;20027;-64
2022/07/12 11:24:34;;;;;;;3.97;1.70;;;27.20;61.00;;;;;;5126245;28;20084;-64
2022/07/12 11:27:00;;;;;;;3.30;1.80;;;27.10;60.90;;;;;;5121000;28;20039;-64
2022/07/12 11:29:26;;;;;;;3.85;2.15;;;27.10;61.10;;;;;;5114332;28;20472;-64
2022/07/12 11:32:05;;;;;;;3.65;2.08;;;26.20;64.50;;;;;;5117135;28;20106;-64
2022/07/12 11:34:31;;;;;;;4.07;2.10;;;26.40;63.40;;;;;;5120368;27;20316;-64
2022/07/12 11:36:58;;;;;;;3.53;2.03;;;26.50;64.80;;;;;;5128759;27;20027;-63
2022/07/12 11:39:30;;;;;;;3.67;1.73;;;26.60;64.10;;;;;;5129102;27;20046;-64
2022/07/12 11:41:57;;;;;;;3.40;1.90;;;26.80;64.80;;;;;;5116673;27;20221;-64
2022/07/12 11:44:43;;;;;;;3.05;1.73;;;27.20;62.40;;;;;;5116460;28;20031;-64
2022/07/12 11:47:09;;;;;;;5.03;1.80;;;27.10;62.70;;;;;;5115046;28;20023;-64
2022/07/12 11:49:35;;;;;;;4.00;1.92;;;27.10;62.80;;;;;;5119714;27;20439;-65
2022/07/12 11:52:00;;;;;;;3.67;1.88;;;27.00;62.90;;;;;;5119984;27;20027;-64
2022/07/12 11:54:26;;;;;;;4.32;1.90;;;27.10;62.80;;;;;;5115942;28;20034;-65
2022/07/12 11:57:08;;;;;;;4.78;1.88;;;27.10;63.50;;;;;;5118496;28;20321;-64
2022/07/12 11:59:34;;;;;;;3.90;1.60;;;27.40;60.90;;;;;;5111744;27;20059;-66
2022/07/12 12:02:07;;;;;;;4.35;1.98;;;27.40;61.70;;;;;;5115115;27;20092;-64
2022/07/12 12:04:49;;;;;;;4.07;1.60;;;27.60;60.50;;;;;;5116239;28;20055;-65
2022/07/12 12:07:16;;;;;;;2.53;1.50;;;27.50;60.70;;;;;;5113790;27;20122;-64
2022/07/12 12:10:01;;;;;;;2.63;1.30;;;28.00;59.20;;;;;;5110206;27;20028;-65
2022/07/12 12:12:54;;;;;;;3.97;1.70;;;28.10;60.70;;;;;;5122690;27;20024;-64
2022/07/12 12:15:24;;;;;;;3.15;1.40;;;28.20;59.00;;;;;;5111967;28;20035;-65
2022/07/12 12:17:50;;;;;;;3.05;1.40;;;27.40;61.30;;;;;;5112170;27;20019;-63
2022/07/12 12:20:21;;;;;;;3.42;1.60;;;27.40;61.90;;;;;;5117768;28;20030;-63
2022/07/12 12:22:49;;;;;;;2.90;1.30;;;27.80;61.10;;;;;;5116880;28;20080;-65
2022/07/12 12:25:30;;;;;;;4.35;1.40;;;27.70;59.60;;;;;;5115051;27;20328;-64
2022/07/12 12:28:03;;;;;;;3.45;1.73;;;27.90;58.60;;;;;;5116655;27;20031;-65
2022/07/12 12:30:47;;;;;;;2.78;1.38;;;27.10;59.20;;;;;;5116915;27;21182;-65
2022/07/12 12:33:13;;;;;;;2.55;1.17;;;27.10;60.70;;;;;;5116250;27;20324;-65
2022/07/12 12:35:39;;;;;;;3.33;1.48;;;27.40;58.50;;;;;;5114455;28;20107;-63
2022/07/12 12:38:12;;;;;;;2.97;1.35;;;27.70;58.50;;;;;;5113387;28;20085;-65
2022/07/12 12:40:38;;;;;;;3.70;1.20;;;28.00;58.40;;;;;;5115536;28;20031;-64
2022/07/12 12:43:23;;;;;;;3.55;1.30;;;28.00;58.40;;;;;;5116376;27;20023;-64
2022/07/12 12:45:52;;;;;;;3.15;1.13;;;27.60;57.70;;;;;;5110362;27;20051;-64
2022/07/12 12:48:28;;;;;;;2.60;1.10;;;27.80;58.30;;;;;;5111371;28;20073;-65
2022/07/12 12:51:10;;;;;;;1.98;0.90;;;28.20;57.70;;;;;;5113598;28;20387;-65
2022/07/12 12:53:38;;;;;;;4.18;1.15;;;28.80;57.90;;;;;;5117370;28;20425;-65
2022/07/12 12:56:10;;;;;;;2.17;1.00;;;29.00;56.10;;;;;;5117855;28;20351;-65